Time;durP1;ratioP1;P1;durP2;ratioP2;P2;SDS_P1;SDS_P2;PMS_P1;PMS_P2;Temp;Humidity;BMP_temperature;BMP_pressure;BME280_temperature;BME280_humidity;BME280_pressure;Samples;Min_cycle;Max_cycle;Signal;HPM_P1;HPM_P2
2023/11/04 09:38:25;;;;;;;1.50;0.70;;;9.40;99.90;;;;;;3088313;23;20237;-80
2023/11/04 09:40:53;;;;;;;1.97;0.40;;;9.40;99.90;;;;;;4919597;29;20628;-80
2023/11/04 09:43:19;;;;;;;3.30;0.47;;;9.50;99.90;;;;;;4920325;29;20580;-79
2023/11/04 09:45:46;;;;;;;1.53;0.50;;;9.50;99.90;;;;;;4909454;29;20230;-77
2023/11/04 09:48:13;;;;;;;1.63;0.30;;;9.60;99.90;;;;;;4901823;29;20694;-79
2023/11/04 09:50:40;;;;;;;1.17;0.50;;;9.50;99.90;;;;;;4901177;29;20228;-79
2023/11/04 09:53:12;;;;;;;0.83;0.40;;;9.40;99.90;;;;;;4901307;29;20554;-77
2023/11/04 09:55:41;;;;;;;0.97;0.33;;;9.40;99.90;;;;;;4900975;29;20237;-76
2023/11/04 09:58:08;;;;;;;1.60;0.40;;;9.30;99.90;;;;;;4901204;29;20210;-73
2023/11/04 10:00:43;;;;;;;3.13;0.60;;;9.30;99.90;;;;;;4901148;29;20290;-77
2023/11/04 10:03:10;;;;;;;1.70;0.40;;;9.30;99.90;;;;;;4900790;29;20700;-75
2023/11/04 10:05:37;;;;;;;2.63;0.40;;;9.30;99.90;;;;;;4900721;29;20286;-77
2023/11/04 10:08:04;;;;;;;3.10;0.50;;;9.20;99.90;;;;;;4900978;29;20241;-76
2023/11/04 10:10:31;;;;;;;2.93;0.67;;;9.20;99.90;;;;;;4900826;29;20691;-72
2023/11/04 10:12:59;;;;;;;10.97;1.87;;;9.30;99.90;;;;;;4900916;29;20274;-74
2023/11/04 10:15:26;;;;;;;1.53;0.40;;;9.30;99.90;;;;;;4900553;29;20724;-76
2023/11/04 10:17:54;;;;;;;2.67;0.40;;;9.40;99.90;;;;;;4901086;29;20220;-70
2023/11/04 10:20:22;;;;;;;1.87;0.30;;;9.50;99.90;;;;;;4900791;29;20214;-69
2023/11/04 10:22:49;;;;;;;1.97;0.40;;;9.50;99.90;;;;;;4899911;29;20206;-69
2023/11/04 10:25:16;;;;;;;0.87;0.37;;;9.50;99.90;;;;;;4900389;29;20662;-68
2023/11/04 10:27:43;;;;;;;2.33;0.30;;;9.50;99.90;;;;;;4900369;29;20246;-77
2023/11/04 10:30:12;;;;;;;2.60;0.40;;;9.50;99.90;;;;;;4900222;29;20210;-75
2023/11/04 10:32:40;;;;;;;1.07;0.30;;;9.40;99.90;;;;;;4900404;29;20214;-76
2023/11/04 10:35:12;;;;;;;0.57;0.30;;;9.50;99.90;;;;;;4900443;29;20237;-75
2023/11/04 10:37:40;;;;;;;1.70;0.30;;;9.60;99.90;;;;;;4900204;29;20573;-75
2023/11/04 10:40:08;;;;;;;2.90;0.53;;;9.60;99.90;;;;;;4900258;29;20550;-75
2023/11/04 10:42:40;;;;;;;0.80;0.30;;;9.70;99.90;;;;;;4900268;29;20214;-76
2023/11/04 10:45:16;;;;;;;0.83;0.30;;;9.80;99.90;;;;;;4900109;29;20268;-77
2023/11/04 10:47:53;;;;;;;1.70;0.47;;;9.70;99.90;;;;;;4900206;29;20281;-78
2023/11/04 10:50:26;;;;;;;1.23;0.20;;;9.60;99.90;;;;;;4900202;29;20220;-75
2023/11/04 10:53:06;;;;;;;0.83;0.30;;;9.60;99.90;;;;;;4899848;29;20234;-77
2023/11/04 10:55:37;;;;;;;2.10;0.30;;;9.50;99.90;;;;;;4899902;29;20582;-75
2023/11/04 10:58:07;;;;;;;2.87;0.70;;;9.40;99.90;;;;;;4900499;29;20297;-76
2023/11/04 11:00:36;;;;;;;4.73;0.43;;;9.40;99.90;;;;;;4900081;29;20214;-77
2023/11/04 11:03:04;;;;;;;0.93;0.20;;;9.50;99.90;;;;;;4899869;29;20577;-78
2023/11/04 11:05:35;;;;;;;1.13;0.30;;;9.60;99.90;;;;;;4899625;29;20249;-76
2023/11/04 11:08:03;;;;;;;0.30;0.23;;;9.70;99.90;;;;;;4899810;29;20242;-76
2023/11/04 11:10:38;;;;;;;0.33;0.20;;;9.70;99.90;;;;;;4899813;29;20211;-75
2023/11/04 11:13:10;;;;;;;1.27;0.33;;;9.70;99.90;;;;;;4899662;29;20300;-73
2023/11/04 11:15:39;;;;;;;0.90;0.13;;;9.60;99.90;;;;;;4899455;29;20234;-77
2023/11/04 11:18:05;;;;;;;0.97;0.30;;;9.70;99.90;;;;;;4899444;29;20236;-74
2023/11/04 11:20:35;;;;;;;2.63;0.97;;;9.70;99.90;;;;;;4899410;29;20229;-76
2023/11/04 11:23:04;;;;;;;0.40;0.23;;;9.70;99.90;;;;;;4895016;29;20922;-71
2023/11/04 11:25:32;;;;;;;1.40;0.93;;;9.80;99.90;;;;;;4890555;29;20235;-76
2023/11/04 11:27:59;;;;;;;0.70;0.23;;;9.80;99.90;;;;;;4896179;29;20242;-75
2023/11/04 11:30:36;;;;;;;0.40;0.30;;;9.80;99.90;;;;;;4898620;29;20261;-76
2023/11/04 11:33:08;;;;;;;0.80;0.30;;;9.70;99.90;;;;;;4898670;29;20683;-73
2023/11/04 11:35:58;;;;;;;0.60;0.20;;;9.60;99.90;;;;;;4885723;29;20230;-75
2023/11/04 11:38:25;;;;;;;0.57;0.30;;;9.50;99.90;;;;;;4894783;29;20230;-74
2023/11/04 11:40:53;;;;;;;1.13;0.40;;;9.50;99.90;;;;;;4894785;29;20214;-73
2023/11/04 11:43:20;;;;;;;1.37;0.20;;;9.60;99.90;;;;;;4885290;29;20281;-78
2023/11/04 11:45:47;;;;;;;0.50;0.30;;;9.60;99.90;;;;;;4897465;29;20234;-76
2023/11/04 11:48:16;;;;;;;0.20;0.10;;;9.50;99.90;;;;;;4896709;29;20245;-76
2023/11/04 11:50:43;;;;;;;0.80;0.23;;;9.70;99.90;;;;;;4891359;29;20206;-79
2023/11/04 11:53:10;;;;;;;0.93;0.50;;;9.70;99.90;;;;;;4898903;29;20216;-77
2023/11/04 11:55:38;;;;;;;1.80;0.33;;;9.70;99.90;;;;;;4897543;29;20238;-76
2023/11/04 11:58:05;;;;;;;0.40;0.20;;;9.70;99.90;;;;;;4899061;29;20214;-77
2023/11/04 12:00:32;;;;;;;0.30;0.30;;;9.60;99.90;;;;;;4898807;29;20210;-78
2023/11/04 12:02:59;;;;;;;0.50;0.33;;;9.70;99.90;;;;;;4898993;29;20213;-76
2023/11/04 12:05:28;;;;;;;0.40;0.20;;;9.80;99.90;;;;;;4898771;29;20234;-76
2023/11/04 12:07:55;;;;;;;4.10;1.47;;;9.90;99.90;;;;;;4898922;29;20333;-76
2023/11/04 12:10:23;;;;;;;1.33;0.30;;;9.90;99.90;;;;;;4898609;29;20760;-76
2023/11/04 12:12:50;;;;;;;2.83;0.83;;;10.00;99.90;;;;;;4898680;29;20214;-76
2023/11/04 12:15:17;;;;;;;0.80;0.20;;;10.00;99.90;;;;;;4898467;29;20259;-76
2023/11/04 12:17:43;;;;;;;2.70;1.10;;;10.00;99.90;;;;;;4898492;29;20206;-75
2023/11/04 12:20:11;;;;;;;0.47;0.17;;;10.10;99.90;;;;;;4898424;29;20213;-77
2023/11/04 12:22:40;;;;;;;0.40;0.20;;;10.10;99.90;;;;;;4898376;29;20380;-77
2023/11/04 12:25:08;;;;;;;1.20;0.43;;;10.20;99.90;;;;;;4898115;29;20313;-75
2023/11/04 12:27:45;;;;;;;0.90;0.50;;;10.20;99.90;;;;;;4898426;29;20601;-78
2023/11/04 12:30:15;;;;;;;1.90;0.70;;;10.20;99.90;;;;;;4898551;29;20213;-77
2023/11/04 12:32:42;;;;;;;0.27;0.20;;;10.30;99.90;;;;;;4898631;29;20210;-76
2023/11/04 12:35:10;;;;;;;3.43;1.07;;;10.30;99.90;;;;;;4898024;29;20234;-76
2023/11/04 12:37:36;;;;;;;2.07;0.93;;;10.40;99.90;;;;;;4898420;29;20206;-76
2023/11/04 12:40:05;;;;;;;4.10;1.33;;;10.40;99.90;;;;;;4898319;29;20206;-76
2023/11/04 12:42:32;;;;;;;1.70;0.73;;;10.50;99.90;;;;;;4898345;29;20209;-77
2023/11/04 12:44:59;;;;;;;1.23;0.80;;;10.50;99.90;;;;;;4897942;29;20713;-76
2023/11/04 12:47:26;;;;;;;2.13;0.60;;;10.60;99.90;;;;;;4897853;29;20234;-76
2023/11/04 12:49:53;;;;;;;0.80;0.40;;;10.60;99.90;;;;;;4898586;29;20300;-76
2023/11/04 12:52:20;;;;;;;0.60;0.30;;;10.60;99.90;;;;;;4898199;29;20210;-76
2023/11/04 12:54:48;;;;;;;0.27;0.10;;;10.70;99.90;;;;;;4897855;29;20261;-76
2023/11/04 12:57:16;;;;;;;2.77;0.50;;;10.70;99.90;;;;;;4897941;29;20221;-74
2023/11/04 12:59:43;;;;;;;3.43;1.57;;;10.80;99.90;;;;;;4898012;29;20210;-76
2023/11/04 13:02:10;;;;;;;2.80;0.90;;;10.80;99.90;;;;;;4897871;29;20246;-75
2023/11/04 13:04:37;;;;;;;0.40;0.40;;;10.90;99.90;;;;;;4897818;29;20246;-75
2023/11/04 13:07:04;;;;;;;1.67;0.47;;;11.00;99.90;;;;;;4898053;29;20236;-76
2023/11/04 13:09:31;;;;;;;1.30;0.90;;;11.00;99.90;;;;;;4897873;29;20232;-75
2023/11/04 13:11:58;;;;;;;0.80;0.50;;;11.00;99.90;;;;;;4897444;29;20215;-75
2023/11/04 13:14:28;;;;;;;0.60;0.10;;;11.00;99.90;;;;;;4897839;29;20646;-76
2023/11/04 13:16:57;;;;;;;0.20;0.10;;;11.10;99.90;;;;;;4897907;29;20210;-74
2023/11/04 13:19:24;;;;;;;0.40;0.10;;;11.10;99.90;;;;;;4898224;29;20210;-75
2023/11/04 13:21:51;;;;;;;0.70;0.40;;;11.10;99.90;;;;;;4897868;29;20668;-75
2023/11/04 13:24:19;;;;;;;1.57;0.40;;;11.00;99.90;;;;;;4897866;29;20221;-75
2023/11/04 13:26:46;;;;;;;0.53;0.27;;;11.00;99.90;;;;;;4897782;29;20261;-75
2023/11/04 13:29:13;;;;;;;1.03;0.20;;;11.00;99.90;;;;;;4897665;29;20210;-75
2023/11/04 13:31:41;;;;;;;4.90;1.50;;;11.00;99.90;;;;;;4898047;29;20218;-75
2023/11/04 13:34:09;;;;;;;0.20;0.20;;;11.00;99.90;;;;;;4897971;29;20210;-75
2023/11/04 13:36:37;;;;;;;0.33;0.30;;;11.10;99.90;;;;;;4897743;29;20235;-75
2023/11/04 13:39:06;;;;;;;2.10;0.70;;;11.20;99.90;;;;;;4897827;29;20229;-75
2023/11/04 13:41:33;;;;;;;1.73;0.40;;;11.20;99.90;;;;;;4897686;29;20594;-75
2023/11/04 13:43:59;;;;;;;0.63;0.20;;;11.20;99.90;;;;;;4897614;29;20301;-75
2023/11/04 13:46:26;;;;;;;5.87;0.97;;;11.20;99.90;;;;;;4897485;29;20265;-75
2023/11/04 13:48:54;;;;;;;1.67;0.73;;;11.20;99.90;;;;;;4897766;29;20244;-75
2023/11/04 13:51:23;;;;;;;0.40;0.33;;;11.30;99.90;;;;;;4897730;29;20207;-75
2023/11/04 13:53:50;;;;;;;0.40;0.30;;;11.40;99.90;;;;;;4897632;29;20210;-75
2023/11/04 13:56:22;;;;;;;0.23;0.20;;;11.60;99.90;;;;;;4897561;29;20261;-75
2023/11/04 13:58:49;;;;;;;0.40;0.10;;;11.60;99.90;;;;;;4899338;29;20244;-74
2023/11/04 14:01:15;;;;;;;0.93;0.20;;;11.60;99.90;;;;;;4900980;29;20673;-75
2023/11/04 14:03:42;;;;;;;0.87;0.37;;;11.60;99.90;;;;;;4901077;29;20214;-75
2023/11/04 14:06:10;;;;;;;2.40;0.30;;;11.70;99.90;;;;;;4900801;29;20701;-75
2023/11/04 14:08:37;;;;;;;0.47;0.20;;;11.80;99.90;;;;;;4900773;29;20245;-75
2023/11/04 14:11:04;;;;;;;0.90;0.30;;;11.90;99.90;;;;;;4900613;29;20684;-76
2023/11/04 14:13:31;;;;;;;0.50;0.30;;;11.90;99.90;;;;;;4900963;29;20221;-75
2023/11/04 14:15:58;;;;;;;0.80;0.30;;;11.90;99.90;;;;;;4900772;29;20241;-75
2023/11/04 14:18:24;;;;;;;1.23;0.20;;;12.00;99.90;;;;;;4900669;29;20214;-75
2023/11/04 14:20:51;;;;;;;0.70;0.27;;;12.00;99.90;;;;;;4900585;29;20684;-75
2023/11/04 14:23:20;;;;;;;1.80;0.40;;;12.00;99.90;;;;;;4900924;29;20206;-73
2023/11/04 14:25:47;;;;;;;0.67;0.20;;;12.00;99.90;;;;;;4900521;29;20222;-74
2023/11/04 14:28:15;;;;;;;0.47;0.30;;;11.90;99.90;;;;;;4900629;29;20290;-74
2023/11/04 14:30:42;;;;;;;0.20;0.20;;;11.80;99.90;;;;;;4900553;29;20217;-75
2023/11/04 14:33:09;;;;;;;2.77;0.20;;;11.80;99.90;;;;;;4900385;29;20305;-75
2023/11/04 14:35:36;;;;;;;1.53;0.30;;;11.70;99.90;;;;;;4900247;29;20226;-75
2023/11/04 14:38:02;;;;;;;0.50;0.20;;;11.70;99.90;;;;;;4900243;29;20312;-75
2023/11/04 14:40:30;;;;;;;0.40;0.20;;;11.60;99.90;;;;;;4900241;29;20214;-74
2023/11/04 14:42:57;;;;;;;1.33;0.30;;;11.50;99.90;;;;;;4900543;29;20217;-72
2023/11/04 14:45:24;;;;;;;0.90;0.23;;;11.60;99.90;;;;;;4900386;29;20240;-70
2023/11/04 14:47:52;;;;;;;0.60;0.40;;;11.70;99.90;;;;;;4900138;29;20270;-70
2023/11/04 14:50:19;;;;;;;0.53;0.53;;;11.80;99.90;;;;;;4900049;29;20705;-69
2023/11/04 14:52:46;;;;;;;2.30;0.30;;;12.00;99.90;;;;;;4900270;29;20218;-69
2023/11/04 14:55:12;;;;;;;0.73;0.30;;;12.00;99.90;;;;;;4900001;29;20235;-70
2023/11/04 14:57:44;;;;;;;1.13;0.30;;;12.00;99.90;;;;;;4900086;29;20214;-69
2023/11/04 15:00:12;;;;;;;0.70;0.40;;;12.10;99.90;;;;;;4900003;29;20210;-69
2023/11/04 15:02:40;;;;;;;0.93;0.30;;;12.10;99.90;;;;;;4900086;29;20214;-68
2023/11/04 15:05:08;;;;;;;1.13;0.40;;;12.10;99.90;;;;;;4899712;29;20324;-68
2023/11/04 15:07:35;;;;;;;0.60;0.30;;;12.00;99.90;;;;;;4900087;29;20241;-68
2023/11/04 15:10:02;;;;;;;2.30;0.40;;;12.10;99.90;;;;;;4899271;29;20657;-68
2023/11/04 15:12:30;;;;;;;0.53;0.23;;;12.10;99.90;;;;;;4899878;29;20238;-68
2023/11/04 15:14:58;;;;;;;2.00;0.43;;;12.10;99.90;;;;;;4899423;29;20240;-70
2023/11/04 15:17:26;;;;;;;0.97;0.40;;;12.10;99.90;;;;;;4899371;29;20210;-68
2023/11/04 15:19:52;;;;;;;4.60;0.50;;;12.10;99.90;;;;;;4899633;29;20696;-68
2023/11/04 15:22:19;;;;;;;0.90;0.40;;;12.10;99.90;;;;;;4900006;29;20214;-69
2023/11/04 15:24:46;;;;;;;3.10;0.37;;;12.00;99.90;;;;;;4899440;29;20241;-74
2023/11/04 15:27:13;;;;;;;0.87;0.40;;;12.00;99.90;;;;;;4899683;29;20574;-74
2023/11/04 15:29:40;;;;;;;1.97;0.43;;;11.90;99.90;;;;;;4899373;29;20246;-74
2023/11/04 15:32:08;;;;;;;2.50;0.40;;;11.90;99.90;;;;;;4899303;29;20210;-75
2023/11/04 15:37:08;;;;;;;1.47;0.40;;;11.90;99.90;;;;;;4879261;29;20234;-73
2023/11/04 15:39:35;;;;;;;0.93;0.30;;;12.00;99.90;;;;;;4880673;29;20291;-73
2023/11/04 15:42:03;;;;;;;1.17;0.40;;;12.00;99.90;;;;;;4880402;29;20215;-75
2023/11/04 15:44:30;;;;;;;6.40;0.50;;;12.00;99.90;;;;;;4880315;29;20215;-73
2023/11/04 15:46:57;;;;;;;2.10;0.30;;;12.00;99.90;;;;;;4880845;29;20242;-74
2023/11/04 15:49:25;;;;;;;2.60;0.60;;;12.00;99.90;;;;;;4880537;29;20279;-76
2023/11/04 15:51:53;;;;;;;8.27;1.33;;;12.00;99.90;;;;;;4880841;29;20298;-72
2023/11/04 15:54:20;;;;;;;1.63;0.80;;;12.00;99.90;;;;;;4880299;29;20279;-74
2023/11/04 15:56:46;;;;;;;1.97;0.80;;;12.00;99.90;;;;;;4880301;29;20323;-75
2023/11/04 15:59:13;;;;;;;2.33;0.50;;;11.80;99.90;;;;;;4880607;29;20265;-73
2023/11/04 16:01:40;;;;;;;1.57;0.30;;;11.70;99.90;;;;;;4880467;29;20254;-76
2023/11/04 16:04:07;;;;;;;2.13;1.47;;;11.70;99.90;;;;;;4880289;29;20226;-73
2023/11/04 16:06:35;;;;;;;0.80;0.50;;;11.70;99.90;;;;;;4880198;29;20263;-73
2023/11/04 16:09:02;;;;;;;1.33;0.50;;;11.70;99.90;;;;;;4880008;29;20333;-72
2023/11/04 16:11:30;;;;;;;2.07;0.77;;;11.70;99.90;;;;;;4879632;29;20229;-72
2023/11/04 16:13:57;;;;;;;1.67;0.60;;;11.70;99.90;;;;;;4879725;29;20222;-72
2023/11/04 16:16:24;;;;;;;1.73;0.40;;;11.70;99.90;;;;;;4880143;29;20720;-72
2023/11/04 16:18:51;;;;;;;1.60;0.30;;;11.70;99.90;;;;;;4879954;29;20243;-72
2023/11/04 16:21:18;;;;;;;2.47;0.40;;;11.60;99.90;;;;;;4879695;29;20251;-72
2023/11/04 16:23:47;;;;;;;2.33;0.40;;;11.60;99.90;;;;;;4879729;29;20645;-72
2023/11/04 16:26:14;;;;;;;2.10;0.40;;;11.60;99.90;;;;;;4879425;29;20231;-72
2023/11/04 16:28:41;;;;;;;2.13;0.37;;;11.50;99.90;;;;;;4879660;29;20657;-72
2023/11/04 16:31:08;;;;;;;0.93;0.33;;;11.40;99.90;;;;;;4879924;29;20250;-71
2023/11/04 16:33:36;;;;;;;4.70;0.60;;;11.30;99.90;;;;;;4879776;29;20211;-72
2023/11/04 16:36:03;;;;;;;6.63;0.70;;;11.20;99.90;;;;;;4879434;29;20622;-72
2023/11/04 16:38:30;;;;;;;2.73;0.80;;;11.20;99.90;;;;;;4879516;29;20579;-72
2023/11/04 16:40:58;;;;;;;1.37;0.70;;;11.20;99.90;;;;;;4879298;29;20271;-72
2023/11/04 16:43:25;;;;;;;3.50;0.93;;;11.20;99.90;;;;;;4879682;29;20675;-72
2023/11/04 16:45:52;;;;;;;3.63;0.90;;;11.20;99.90;;;;;;4879380;29;20262;-72
2023/11/04 16:48:21;;;;;;;4.43;0.70;;;11.10;99.90;;;;;;4879295;29;20572;-72
2023/11/04 16:50:48;;;;;;;3.10;1.00;;;11.20;99.90;;;;;;4879554;29;20298;-72
2023/11/04 16:53:15;;;;;;;1.87;0.73;;;11.10;99.90;;;;;;4879474;29;20686;-72
2023/11/04 16:55:42;;;;;;;4.27;0.87;;;11.20;99.90;;;;;;4879542;29;20246;-72
2023/11/04 16:58:10;;;;;;;8.73;1.33;;;11.20;99.90;;;;;;4879254;29;20571;-72
2023/11/04 17:00:38;;;;;;;3.67;0.83;;;11.30;99.90;;;;;;4879264;29;20210;-72
2023/11/04 17:03:05;;;;;;;3.50;0.70;;;11.20;99.90;;;;;;4879432;29;20698;-72
2023/11/04 17:05:31;;;;;;;5.50;0.93;;;11.30;99.90;;;;;;4879039;29;20243;-72
2023/11/04 17:07:58;;;;;;;2.10;0.60;;;11.30;99.90;;;;;;4879014;29;20309;-72
2023/11/04 17:10:25;;;;;;;4.33;0.90;;;11.40;99.90;;;;;;4879194;29;20301;-72
2023/11/04 17:12:52;;;;;;;4.00;0.80;;;11.40;99.90;;;;;;4879217;29;20211;-72
2023/11/04 17:15:21;;;;;;;4.83;0.80;;;11.50;99.90;;;;;;4879235;29;20329;-72
2023/11/04 17:17:47;;;;;;;2.70;0.97;;;11.50;99.90;;;;;;4879373;29;20211;-72
2023/11/04 17:20:15;;;;;;;5.53;1.03;;;11.60;99.90;;;;;;4879218;29;20604;-72
2023/11/04 17:22:42;;;;;;;2.27;0.80;;;11.60;99.90;;;;;;4878942;29;20215;-72
2023/11/04 17:25:09;;;;;;;4.63;0.90;;;11.70;99.90;;;;;;4878922;29;20241;-72
2023/11/04 17:27:36;;;;;;;5.10;1.07;;;11.70;99.90;;;;;;4878801;29;20745;-73
2023/11/04 17:30:04;;;;;;;2.90;0.83;;;11.70;99.90;;;;;;4878827;29;20679;-72
2023/11/04 17:32:32;;;;;;;8.53;1.30;;;11.70;99.90;;;;;;4880310;29;20579;-72
2023/11/04 17:35:02;;;;;;;3.43;0.80;;;11.70;99.90;;;;;;4882525;29;20572;-72
2023/11/04 17:37:29;;;;;;;4.47;0.80;;;11.70;99.90;;;;;;4882873;29;20250;-72
2023/11/04 17:39:56;;;;;;;3.83;0.70;;;11.70;99.90;;;;;;4882647;29;20321;-71
2023/11/04 17:42:23;;;;;;;3.70;1.00;;;11.60;99.90;;;;;;4882397;29;20219;-71
2023/11/04 17:44:50;;;;;;;6.30;0.73;;;11.50;99.90;;;;;;4882572;29;20235;-72
2023/11/04 17:47:16;;;;;;;2.40;0.67;;;11.40;99.90;;;;;;4882688;29;20211;-72
2023/11/04 17:49:45;;;;;;;5.67;0.70;;;11.30;99.90;;;;;;4882334;29;20235;-72
2023/11/04 17:52:12;;;;;;;4.63;0.67;;;11.20;99.90;;;;;;4882481;29;20267;-72
2023/11/04 17:54:39;;;;;;;4.17;1.10;;;11.10;99.90;;;;;;4882529;29;20218;-73
2023/11/04 17:57:06;;;;;;;5.17;1.20;;;11.10;99.90;;;;;;4882490;29;20239;-72
2023/11/04 17:59:33;;;;;;;5.43;0.83;;;11.10;99.90;;;;;;4882497;29;20298;-72
2023/11/04 18:02:00;;;;;;;2.20;0.80;;;11.10;99.90;;;;;;4882452;29;20358;-72
2023/11/04 18:04:27;;;;;;;2.40;0.90;;;11.10;99.90;;;;;;4882239;29;20267;-72
2023/11/04 18:06:55;;;;;;;4.77;0.87;;;11.00;99.90;;;;;;4882373;29;20212;-72
2023/11/04 18:09:24;;;;;;;5.37;1.67;;;10.90;99.90;;;;;;4882181;29;20243;-72
2023/11/04 18:11:51;;;;;;;3.03;0.77;;;10.80;99.90;;;;;;4882394;29;20211;-72
2023/11/04 18:14:18;;;;;;;4.20;1.13;;;10.80;99.90;;;;;;4882178;29;20218;-72
2023/11/04 18:16:45;;;;;;;4.40;1.63;;;10.70;99.90;;;;;;4881688;29;20289;-71
2023/11/04 18:19:12;;;;;;;4.33;0.70;;;10.70;99.90;;;;;;4882152;29;20219;-71
2023/11/04 18:21:39;;;;;;;2.30;0.60;;;10.60;99.90;;;;;;4882061;29;20215;-71
2023/11/04 18:24:09;;;;;;;2.97;0.77;;;10.50;99.90;;;;;;4882101;29;20211;-72
2023/11/04 18:26:36;;;;;;;2.93;0.63;;;10.50;99.90;;;;;;4882010;29;20686;-71
2023/11/04 18:29:03;;;;;;;6.40;1.27;;;10.40;99.90;;;;;;4881930;29;20302;-71
2023/11/04 18:31:30;;;;;;;2.30;0.70;;;10.30;99.90;;;;;;4881915;29;20215;-72
2023/11/04 18:33:57;;;;;;;1.83;0.70;;;10.20;99.90;;;;;;4881966;29;20207;-73
2023/11/04 18:36:24;;;;;;;4.63;1.03;;;10.20;99.90;;;;;;4881208;29;20607;-71
2023/11/04 18:38:51;;;;;;;2.40;1.00;;;10.20;99.90;;;;;;4881714;29;20218;-71
2023/11/04 18:41:19;;;;;;;2.07;0.67;;;10.20;99.90;;;;;;4881699;29;20223;-71
2023/11/04 18:43:46;;;;;;;4.47;1.00;;;10.20;99.90;;;;;;4881059;29;20305;-71
2023/11/04 18:46:13;;;;;;;2.93;0.80;;;10.10;99.90;;;;;;4881874;29;20644;-72
2023/11/04 18:48:40;;;;;;;7.47;1.00;;;10.00;99.90;;;;;;4881531;29;20214;-72
2023/11/04 18:51:08;;;;;;;6.33;0.90;;;10.00;99.90;;;;;;4881326;29;20215;-71
2023/11/04 18:53:34;;;;;;;3.40;1.20;;;10.00;99.90;;;;;;4881550;29;20215;-72
2023/11/04 18:56:01;;;;;;;9.47;1.13;;;9.90;99.90;;;;;;4881152;29;20322;-71
2023/11/04 18:58:30;;;;;;;2.77;0.70;;;9.90;99.90;;;;;;4881328;29;20242;-72
2023/11/04 19:00:56;;;;;;;7.00;1.07;;;9.90;99.90;;;;;;4881386;29;20754;-72
2023/11/04 19:03:23;;;;;;;3.13;0.80;;;9.90;99.90;;;;;;4881536;29;20222;-71
2023/11/04 19:05:50;;;;;;;5.23;0.83;;;10.00;99.90;;;;;;4881128;29;20774;-73
2023/11/04 19:08:17;;;;;;;4.20;0.80;;;10.00;99.90;;;;;;4881194;29;20214;-72
2023/11/04 19:10:44;;;;;;;2.67;0.80;;;9.90;99.90;;;;;;4880708;29;20243;-72
2023/11/04 19:13:11;;;;;;;5.67;0.90;;;9.90;99.90;;;;;;4880990;29;20215;-74
2023/11/04 19:15:41;;;;;;;2.67;0.90;;;9.90;99.90;;;;;;4880664;29;20762;-72
2023/11/04 19:18:08;;;;;;;5.60;1.03;;;10.00;99.90;;;;;;4880830;29;20219;-71
2023/11/04 19:20:36;;;;;;;5.90;1.30;;;10.00;99.90;;;;;;4880941;29;20560;-72
2023/11/04 19:23:03;;;;;;;7.40;1.57;;;10.00;99.90;;;;;;4880682;29;20211;-72
2023/11/04 19:25:30;;;;;;;3.27;0.80;;;10.00;99.90;;;;;;4880758;29;20283;-72
2023/11/04 19:27:57;;;;;;;3.37;0.67;;;10.00;99.90;;;;;;4881158;29;20259;-72
2023/11/04 19:30:28;;;;;;;3.30;0.90;;;10.00;99.90;;;;;;4880698;29;20698;-72
2023/11/04 19:32:56;;;;;;;5.03;0.93;;;10.00;99.90;;;;;;4880679;29;20592;-72
2023/11/04 19:35:23;;;;;;;5.40;1.10;;;10.00;99.90;;;;;;4880498;29;20294;-71
2023/11/04 19:37:50;;;;;;;4.00;0.70;;;10.10;99.90;;;;;;4880668;29;20287;-72
2023/11/04 19:40:17;;;;;;;0.97;0.57;;;10.10;99.90;;;;;;4880060;29;20274;-72
2023/11/04 19:42:46;;;;;;;7.33;1.50;;;10.20;99.90;;;;;;4880470;29;20215;-72
2023/11/04 19:45:16;;;;;;;5.97;1.00;;;10.10;99.90;;;;;;4880203;29;20246;-72
2023/11/04 19:47:43;;;;;;;3.33;0.90;;;10.00;99.90;;;;;;4880746;29;20268;-72
2023/11/04 19:50:12;;;;;;;5.03;0.70;;;10.00;99.90;;;;;;4880369;29;20238;-72
2023/11/04 19:52:39;;;;;;;2.67;0.60;;;10.10;99.90;;;;;;4880341;29;20259;-72
2023/11/04 19:55:07;;;;;;;1.97;0.63;;;10.10;99.90;;;;;;4879885;29;20326;-76
2023/11/04 19:57:34;;;;;;;8.33;1.27;;;10.20;99.90;;;;;;4863469;29;20207;-72
2023/11/04 20:00:01;;;;;;;2.60;0.80;;;10.10;99.90;;;;;;4862669;29;20299;-75
2023/11/04 20:02:28;;;;;;;10.63;1.17;;;10.10;99.90;;;;;;4876438;29;20222;-72
2023/11/04 20:04:56;;;;;;;3.90;1.00;;;10.20;99.90;;;;;;4878740;29;20251;-75
2023/11/04 20:07:25;;;;;;;5.37;0.70;;;10.20;99.90;;;;;;4879553;29;20294;-72
2023/11/04 20:09:53;;;;;;;7.73;1.10;;;10.20;99.90;;;;;;4879485;29;20243;-72
2023/11/04 20:12:21;;;;;;;4.40;0.80;;;10.20;99.90;;;;;;4879378;29;20579;-72
2023/11/04 20:14:50;;;;;;;2.13;0.73;;;10.20;99.90;;;;;;4879310;29;20227;-72
2023/11/04 20:17:18;;;;;;;5.33;1.70;;;10.20;99.90;;;;;;4879288;29;20302;-72
2023/11/04 20:19:46;;;;;;;3.33;0.90;;;10.20;99.90;;;;;;4879406;29;20215;-72
2023/11/04 20:22:13;;;;;;;4.03;0.90;;;10.20;99.90;;;;;;4879067;29;20308;-73
2023/11/04 20:24:48;;;;;;;2.37;0.70;;;10.20;99.90;;;;;;4879173;29;20211;-72
2023/11/04 20:27:15;;;;;;;8.97;0.97;;;10.20;99.90;;;;;;4879230;29;20222;-72
2023/11/04 20:29:42;;;;;;;7.57;1.23;;;10.30;99.90;;;;;;4879132;29;20235;-72
2023/11/04 20:32:09;;;;;;;5.10;0.73;;;10.20;99.90;;;;;;4868764;29;20208;-72
2023/11/04 20:34:37;;;;;;;1.93;0.60;;;10.30;99.90;;;;;;4877294;29;20203;-72
2023/11/04 20:37:04;;;;;;;3.33;0.93;;;10.30;99.90;;;;;;4879083;29;20225;-72
2023/11/04 20:39:31;;;;;;;5.73;1.20;;;10.30;99.90;;;;;;4878929;29;20298;-72
2023/11/04 20:42:00;;;;;;;5.70;1.67;;;10.30;99.90;;;;;;4879065;29;20747;-71
2023/11/04 20:44:27;;;;;;;4.70;0.70;;;10.30;99.90;;;;;;4878932;29;20238;-72
2023/11/04 20:46:54;;;;;;;3.13;1.13;;;10.30;99.90;;;;;;4879252;29;20214;-72
2023/11/04 20:49:22;;;;;;;4.03;0.50;;;10.20;99.90;;;;;;4878805;29;20242;-72
2023/11/04 20:51:49;;;;;;;4.07;0.70;;;10.20;99.90;;;;;;4878981;29;20222;-73
2023/11/04 20:54:16;;;;;;;3.80;1.10;;;10.20;99.90;;;;;;4878953;29;20222;-73
2023/11/04 20:56:43;;;;;;;2.13;0.53;;;10.20;99.90;;;;;;4879197;29;20706;-71
2023/11/04 20:59:12;;;;;;;7.03;0.90;;;10.20;99.90;;;;;;4878895;29;20215;-71
2023/11/04 21:01:41;;;;;;;6.60;0.90;;;10.20;99.90;;;;;;4879123;29;20296;-71
2023/11/04 21:04:07;;;;;;;6.60;1.03;;;10.20;99.90;;;;;;4879030;29;20246;-71
2023/11/04 21:06:35;;;;;;;6.50;1.13;;;10.30;99.90;;;;;;4865982;29;20284;-72
2023/11/04 21:09:02;;;;;;;2.77;0.70;;;10.40;99.90;;;;;;4885006;29;20246;-71
2023/11/04 21:11:29;;;;;;;1.93;0.43;;;10.50;99.90;;;;;;4884560;29;20325;-71
2023/11/04 21:13:56;;;;;;;4.20;0.70;;;10.50;99.90;;;;;;4884703;29;20219;-71
2023/11/04 21:16:25;;;;;;;3.03;0.60;;;10.50;99.90;;;;;;4884880;29;20235;-71
2023/11/04 21:18:51;;;;;;;4.80;1.30;;;10.50;99.90;;;;;;4885190;29;20211;-71
2023/11/04 21:21:21;;;;;;;1.60;0.83;;;10.50;99.90;;;;;;4884838;29;20761;-71
2023/11/04 21:23:48;;;;;;;1.70;0.83;;;10.50;99.90;;;;;;4885271;29;20218;-72
2023/11/04 21:26:14;;;;;;;6.17;0.50;;;10.50;99.90;;;;;;4884749;29;20326;-71
2023/11/04 21:28:41;;;;;;;1.60;0.60;;;10.50;99.90;;;;;;4885229;29;20297;-72
2023/11/04 21:31:08;;;;;;;4.23;0.60;;;10.50;99.90;;;;;;4884695;29;20238;-72
2023/11/04 21:33:35;;;;;;;6.30;0.70;;;10.50;99.90;;;;;;4885265;29;20214;-73
2023/11/04 21:36:02;;;;;;;3.80;0.80;;;10.50;99.90;;;;;;4884931;29;20778;-71
2023/11/04 21:38:29;;;;;;;3.80;0.70;;;10.50;99.90;;;;;;4880607;29;20212;-72
2023/11/04 21:40:57;;;;;;;2.20;0.70;;;10.50;99.90;;;;;;4883236;29;20443;-71
2023/11/04 21:43:24;;;;;;;2.80;0.80;;;10.60;99.90;;;;;;4884860;29;20215;-72
2023/11/04 21:45:50;;;;;;;3.63;0.60;;;10.70;99.90;;;;;;4884619;29;20226;-71
2023/11/04 21:48:17;;;;;;;3.00;1.00;;;10.80;99.90;;;;;;4884695;29;20253;-71
2023/11/04 21:50:46;;;;;;;4.83;0.80;;;10.80;99.90;;;;;;4884729;29;20239;-71
2023/11/04 21:53:12;;;;;;;4.13;0.77;;;10.80;99.90;;;;;;4884791;29;20211;-71
2023/11/04 21:55:39;;;;;;;2.87;1.73;;;10.70;99.90;;;;;;4884173;29;20262;-71
2023/11/04 21:58:06;;;;;;;5.10;0.93;;;10.70;99.90;;;;;;4884780;29;20294;-71
2023/11/04 22:00:33;;;;;;;4.67;0.80;;;10.60;99.90;;;;;;4884148;29;20218;-71
2023/11/04 22:03:00;;;;;;;6.80;0.70;;;10.60;99.90;;;;;;4884615;29;20221;-71
2023/11/04 22:05:27;;;;;;;4.37;0.70;;;10.50;99.90;;;;;;4884459;29;20231;-71
2023/11/04 22:07:55;;;;;;;1.33;0.40;;;10.40;99.90;;;;;;4884516;29;20715;-71
2023/11/04 22:10:22;;;;;;;0.80;0.73;;;10.30;99.90;;;;;;4883990;29;20230;-72
2023/11/04 22:12:49;;;;;;;3.60;0.50;;;10.30;99.90;;;;;;4884589;29;20215;-71
